createdAt,value
2018-12-01T00:00:52.383Z,0
2018-12-01T00:01:53.132Z,0
2018-12-01T00:02:52.856Z,0
2018-12-01T00:03:55.005Z,0
2018-12-01T00:04:55.971Z,0
2018-12-01T00:05:55.930Z,0
2018-12-01T00:06:56.907Z,0
2018-12-01T00:07:57.932Z,0
2018-12-01T00:08:58.613Z,0
2018-12-01T00:09:59.622Z,0
2018-12-01T00:11:00.304Z,0
2018-12-01T00:12:00.986Z,0
2018-12-01T00:13:01.530Z,0
2018-12-01T00:14:01.935Z,0
2018-12-01T00:15:02.906Z,0
2018-12-01T00:16:03.312Z,0
2018-12-01T00:17:03.717Z,0
2018-12-01T00:18:04.507Z,0
2018-12-01T00:19:04.975Z,0
2018-12-01T00:20:05.656Z,0
2018-12-01T00:21:06.615Z,0
2018-12-01T00:22:07.020Z,0
2018-12-01T00:23:08.112Z,0
2018-12-01T00:24:08.796Z,0
2018-12-01T00:25:09.479Z,0
2018-12-01T00:26:09.890Z,0
2018-12-01T00:27:11.016Z,0
2018-12-01T00:28:12.419Z,0
2018-12-01T00:29:14.104Z,0
2018-12-01T00:30:14.512Z,0
2018-12-01T00:31:15.746Z,0
2018-12-01T00:32:16.150Z,0
2018-12-01T00:33:17.054Z,0
2018-12-01T00:34:17.459Z,0
2018-12-01T00:35:18.142Z,0
2018-12-01T00:36:18.551Z,0
2018-12-01T00:37:18.957Z,0
2018-12-01T00:38:19.976Z,0
2018-12-01T00:39:19.796Z,0
2018-12-01T00:40:21.136Z,0
2018-12-01T00:41:21.371Z,0
2018-12-01T00:42:22.053Z,0
2018-12-01T00:43:23.445Z,0
2018-12-01T00:44:24.445Z,0
2018-12-01T00:45:25.543Z,0
2018-12-01T00:46:24.959Z,0
2018-12-01T00:47:26.092Z,0
2018-12-01T00:48:27.051Z,0
2018-12-01T00:49:28.013Z,0
2018-12-01T00:50:27.424Z,0
2018-12-01T00:51:28.559Z,0
2018-12-01T00:52:29.965Z,0
2018-12-01T00:53:30.503Z,0
2018-12-01T00:54:31.187Z,0
2018-12-01T00:55:31.685Z,0
2018-12-01T00:56:32.195Z,0
2018-12-01T00:57:32.833Z,0
2018-12-01T00:58:33.349Z,0
2018-12-01T00:59:34.029Z,0
2018-12-01T01:00:35.434Z,0
2018-12-01T01:01:37.129Z,0
2018-12-01T01:02:37.255Z,0
2018-12-01T01:03:37.947Z,0
2018-12-01T01:04:38.350Z,0
2018-12-01T01:05:38.476Z,0
2018-12-01T01:06:39.880Z,0
2018-12-01T01:07:40.764Z,0
2018-12-01T01:08:41.168Z,0
2018-12-01T01:09:42.133Z,0
2018-12-01T01:10:42.374Z,0
2018-12-01T01:11:42.780Z,0
2018-12-01T01:12:43.467Z,0
2018-12-01T01:13:44.555Z,0
2018-12-01T01:14:45.242Z,0
2018-12-01T01:15:45.373Z,0
2018-12-01T01:16:47.057Z,0
2018-12-01T01:17:48.025Z,0
2018-12-01T01:18:47.978Z,0
2018-12-01T01:19:48.383Z,0
2018-12-01T01:20:48.515Z,0
2018-12-01T01:21:49.916Z,0
2018-12-01T01:22:50.332Z,0
2018-12-01T01:23:51.206Z,0
2018-12-01T01:24:52.621Z,0
2018-12-01T01:25:53.313Z,0
2018-12-01T01:26:53.728Z,0
2018-12-01T01:27:54.179Z,0
2018-12-01T01:28:55.147Z,0
2018-12-01T01:29:55.561Z,0
2018-12-01T01:30:56.257Z,0
2018-12-01T01:31:56.952Z,0
2018-12-01T01:32:57.656Z,0
2018-12-01T01:33:58.476Z,0
2018-12-01T01:34:58.891Z,0
2018-12-01T01:35:59.865Z,0
2018-12-01T01:37:00.001Z,0
2018-12-01T01:38:01.971Z,0
2018-12-01T01:39:02.110Z,0
2018-12-01T01:40:04.081Z,0
2018-12-01T01:41:04.506Z,0
2018-12-01T01:42:05.470Z,0
2018-12-01T01:43:05.885Z,0
2018-12-01T01:44:07.269Z,0
2018-12-01T01:45:07.411Z,0
2018-12-01T01:46:07.827Z,0
2018-12-01T01:47:09.523Z,0
2018-12-01T01:48:10.215Z,0
2018-12-01T01:49:10.907Z,0
2018-12-01T01:50:11.877Z,0
2018-12-01T01:51:11.861Z,0
2018-12-01T01:52:12.271Z,0
2018-12-01T01:53:12.966Z,0
2018-12-01T01:54:13.799Z,0
2018-12-01T01:55:14.784Z,0
2018-12-01T01:56:15.203Z,0
2018-12-01T01:57:16.895Z,0
2018-12-01T01:58:17.311Z,0
2018-12-01T01:59:18.723Z,0
2018-12-01T02:00:19.742Z,0
2018-12-01T02:01:21.024Z,0
2018-12-01T02:02:21.716Z,0
2018-12-01T02:03:22.725Z,0
2018-12-01T02:04:22.563Z,0
2018-12-01T02:05:23.590Z,0
2018-12-01T02:06:24.282Z,0
2018-12-01T02:07:24.706Z,0
2018-12-01T02:08:25.958Z,0
2018-12-01T02:09:26.375Z,0
2018-12-01T02:10:27.070Z,0
2018-12-01T02:11:27.486Z,0
2018-12-01T02:12:28.180Z,0
2018-12-01T02:13:29.599Z,0
2018-12-01T02:14:30.426Z,0
2018-12-01T02:15:31.118Z,0
2018-12-01T02:16:32.365Z,0
2018-12-01T02:17:33.059Z,0
2018-12-01T02:18:34.028Z,0
2018-12-01T02:19:34.446Z,0
2018-12-01T02:20:34.860Z,0
2018-12-01T02:21:36.556Z,0
2018-12-01T02:22:37.245Z,0
2018-12-01T02:23:38.215Z,0
2018-12-01T02:24:38.949Z,0
2018-12-01T02:25:39.118Z,0
2018-12-01T02:26:40.813Z,0
2018-12-01T02:27:42.105Z,0
2018-12-01T02:28:42.078Z,0
2018-12-01T02:29:43.046Z,0
2018-12-01T02:30:44.301Z,0
2018-12-01T02:31:44.441Z,0
2018-12-01T02:32:45.761Z,0
2018-12-01T02:33:47.032Z,0
2018-12-01T02:34:48.259Z,0
2018-12-01T02:35:48.506Z,0
2018-12-01T02:36:49.502Z,0
2018-12-01T02:37:50.767Z,0
2018-12-01T02:38:52.069Z,0
2018-12-01T02:39:52.052Z,0
2018-12-01T02:40:52.753Z,0
2018-12-01T02:41:53.725Z,0
2018-12-01T02:42:54.423Z,0
2018-12-01T02:43:54.837Z,0
2018-12-01T02:44:55.973Z,0
2018-12-01T02:45:56.389Z,0
2018-12-01T02:46:56.806Z,0
2018-12-01T02:47:58.500Z,0
2018-12-01T02:48:59.198Z,0
2018-12-01T02:49:59.893Z,0
2018-12-01T02:51:00.306Z,0
2018-12-01T02:52:01.834Z,0
2018-12-01T02:53:01.821Z,0
2018-12-01T02:54:02.790Z,0
2018-12-01T02:55:03.897Z,0
2018-12-01T02:56:04.607Z,0
2018-12-01T02:57:04.742Z,0
2018-12-01T02:58:06.159Z,0
2018-12-01T02:59:06.851Z,0
2018-12-01T03:00:07.866Z,0
2018-12-01T03:01:08.283Z,0
2018-12-01T03:02:09.700Z,0
2018-12-01T03:03:10.397Z,0
2018-12-01T03:04:11.091Z,0
2018-12-01T03:05:11.914Z,0
2018-12-01T03:06:12.606Z,0
2018-12-01T03:07:13.023Z,0
2018-12-01T03:08:14.441Z,0
2018-12-01T03:09:14.576Z,0
2018-12-01T03:10:15.548Z,0
2018-12-01T03:11:15.963Z,0
2018-12-01T03:12:16.376Z,0
2018-12-01T03:13:16.537Z,0
2018-12-01T03:14:16.954Z,0
2018-12-01T03:15:17.665Z,0
2018-12-01T03:16:19.189Z,0
2018-12-01T03:17:19.882Z,0
2018-12-01T03:18:20.020Z,0
2018-12-01T03:19:21.713Z,0
2018-12-01T03:20:22.685Z,0
2018-12-01T03:21:23.656Z,0
2018-12-01T03:22:23.795Z,0
2018-12-01T03:23:24.973Z,0
2018-12-01T03:24:25.388Z,0
2018-12-01T03:25:26.512Z,0
2018-12-01T03:26:27.203Z,0
2018-12-01T03:27:27.898Z,0
2018-12-01T03:28:28.037Z,0
2018-12-01T03:29:29.735Z,0
2018-12-01T03:30:31.821Z,0
2018-12-01T03:31:31.803Z,0
2018-12-01T03:32:32.881Z,0
2018-12-01T03:33:32.579Z,0
2018-12-01T03:34:33.273Z,0
2018-12-01T03:35:34.119Z,0
2018-12-01T03:36:34.266Z,0
2018-12-01T03:37:35.672Z,0
2018-12-01T03:38:36.372Z,0
2018-12-01T03:39:37.068Z,0
2018-12-01T03:40:38.036Z,0
2018-12-01T03:41:37.729Z,0
2018-12-01T03:42:38.976Z,0
2018-12-01T03:43:39.682Z,0
2018-12-01T03:44:40.095Z,0
2018-12-01T03:45:40.995Z,0
2018-12-01T03:46:42.687Z,0
2018-12-01T03:47:43.107Z,0
2018-12-01T03:48:44.367Z,0
2018-12-01T03:49:45.063Z,0
2018-12-01T03:50:45.478Z,0
2018-12-01T03:51:45.615Z,0
2018-12-01T03:52:48.420Z,0
2018-12-01T03:53:47.837Z,0
2018-12-01T03:54:48.535Z,0
2018-12-01T03:55:49.661Z,0
2018-12-01T03:56:49.798Z,0
2018-12-01T03:57:50.212Z,0
2018-12-01T03:58:51.180Z,0
2018-12-01T03:59:51.319Z,0
2018-12-01T04:00:53.288Z,0
2018-12-01T04:01:54.262Z,0
2018-12-01T04:02:54.398Z,0
2018-12-01T04:03:55.572Z,0
2018-12-01T04:04:56.984Z,0
2018-12-01T04:05:57.562Z,0
2018-12-01T04:06:57.976Z,0
2018-12-01T04:07:59.443Z,0
2018-12-01T04:09:00.141Z,0
2018-12-01T04:10:00.558Z,0
2018-12-01T04:11:01.805Z,0
2018-12-01T04:12:02.497Z,0
2018-12-01T04:13:03.192Z,0
2018-12-01T04:14:04.165Z,0
2018-12-01T04:15:04.582Z,0
2018-12-01T04:16:05.405Z,0
2018-12-01T04:17:05.819Z,0
2018-12-01T04:18:05.965Z,0
2018-12-01T04:19:07.653Z,0
2018-12-01T04:20:07.900Z,0
2018-12-01T04:21:08.638Z,0
2018-12-01T04:22:09.054Z,0
2018-12-01T04:23:10.466Z,0
2018-12-01T04:24:10.603Z,0
2018-12-01T04:25:11.019Z,0
2018-12-01T04:26:12.682Z,0
2018-12-01T04:27:13.101Z,0
2018-12-01T04:28:13.791Z,0
2018-12-01T04:29:13.928Z,0
2018-12-01T04:30:15.630Z,0
2018-12-01T04:31:16.880Z,0
2018-12-01T04:32:16.295Z,0
2018-12-01T04:33:17.710Z,0
2018-12-01T04:34:18.123Z,0
2018-12-01T04:35:18.831Z,0
2018-12-01T04:36:19.660Z,0
2018-12-01T04:37:20.350Z,0
2018-12-01T04:38:20.487Z,0
2018-12-01T04:39:21.238Z,0
2018-12-01T04:40:21.934Z,0
2018-12-01T04:41:22.674Z,0
2018-12-01T04:42:22.815Z,0
2018-12-01T04:43:24.378Z,0
2018-12-01T04:44:24.621Z,0
2018-12-01T04:45:25.319Z,0
2018-12-01T04:46:26.145Z,0
2018-12-01T04:47:26.560Z,0
2018-12-01T04:48:27.252Z,0
2018-12-01T04:49:27.391Z,0
2018-12-01T04:50:28.642Z,0
2018-12-01T04:51:29.059Z,0
2018-12-01T04:52:30.305Z,0
2018-12-01T04:53:30.722Z,0
2018-12-01T04:54:31.411Z,0
2018-12-01T04:55:32.105Z,0
2018-12-01T04:56:32.380Z,0
2018-12-01T04:57:32.797Z,0
2018-12-01T04:58:33.939Z,0
2018-12-01T04:59:34.632Z,0
2018-12-01T05:00:35.637Z,0
2018-12-01T05:01:35.050Z,0
2018-12-01T05:02:36.504Z,0
2018-12-01T05:03:37.215Z,0
2018-12-01T05:04:37.632Z,0
2018-12-01T05:05:37.770Z,0
2018-12-01T05:06:38.073Z,0
2018-12-01T05:07:39.044Z,0
2018-12-01T05:08:40.848Z,0
2018-12-01T05:09:40.263Z,0
2018-12-01T05:10:40.685Z,0
2018-12-01T05:11:41.098Z,0
2018-12-01T05:12:42.547Z,0
2018-12-01T05:13:43.242Z,0
2018-12-01T05:14:43.663Z,0
2018-12-01T05:15:44.808Z,0
2018-12-01T05:16:45.201Z,0
2018-12-01T05:17:46.452Z,0
2018-12-01T05:18:47.145Z,0
2018-12-01T05:19:47.842Z,0
2018-12-01T05:20:48.256Z,0
2018-12-01T05:21:48.672Z,0
2018-12-01T05:22:48.817Z,0
2018-12-01T05:23:49.510Z,0
2018-12-01T05:24:50.201Z,0
2018-12-01T05:25:50.895Z,0
2018-12-01T05:26:51.221Z,0
2018-12-01T05:27:51.663Z,0
2018-12-01T05:28:52.352Z,0
2018-12-01T05:29:53.048Z,0
2018-12-01T05:30:53.747Z,0
2018-12-01T05:31:54.443Z,0
2018-12-01T05:32:54.855Z,0
2018-12-01T05:33:55.268Z,0
2018-12-01T05:34:55.958Z,0
2018-12-01T05:35:56.423Z,0
2018-12-01T05:36:56.696Z,0
2018-12-01T05:37:58.114Z,0
2018-12-01T05:38:58.250Z,0
2018-12-01T05:39:59.218Z,0
2018-12-01T05:40:59.357Z,0
2018-12-01T05:42:01.046Z,0
2018-12-01T05:43:01.780Z,0
2018-12-01T05:44:02.198Z,0
2018-12-01T05:45:02.613Z,0
2018-12-01T05:46:03.584Z,0
2018-12-01T05:47:04.145Z,0
2018-12-01T05:48:05.839Z,0
2018-12-01T05:49:06.256Z,0
2018-12-01T05:50:06.675Z,0
2018-12-01T05:51:07.090Z,0
2018-12-01T05:52:07.639Z,0
2018-12-01T05:53:08.623Z,0
2018-12-01T05:54:09.599Z,0
2018-12-01T05:55:10.294Z,0
2018-12-01T05:56:11.268Z,0
2018-12-01T05:57:11.839Z,0
2018-12-01T05:58:13.090Z,0
2018-12-01T05:59:13.781Z,0
2018-12-01T06:00:14.790Z,0
2018-12-01T06:01:15.207Z,0
2018-12-01T06:02:15.346Z,0
2018-12-01T06:03:16.762Z,0
2018-12-01T06:04:16.898Z,0
2018-12-01T06:05:17.870Z,0
2018-12-01T06:06:18.841Z,0
2018-12-01T06:07:19.263Z,0
2018-12-01T06:08:20.235Z,0
2018-12-01T06:09:21.761Z,0
2018-12-01T06:10:21.458Z,0
2018-12-01T06:11:22.430Z,0
2018-12-01T06:12:22.569Z,0
2018-12-01T06:13:23.984Z,0
2018-12-01T06:14:24.124Z,0
2018-12-01T06:15:24.545Z,0
2018-12-01T06:16:26.239Z,0
2018-12-01T06:17:27.647Z,0
2018-12-01T06:18:28.063Z,0
2018-12-01T06:19:28.202Z,0
2018-12-01T06:20:29.182Z,0
2018-12-01T06:21:29.882Z,0
2018-12-01T06:22:30.026Z,0
2018-12-01T06:23:30.998Z,0
2018-12-01T06:24:31.412Z,0
2018-12-01T06:25:32.386Z,0
2018-12-01T06:26:32.802Z,0
2018-12-01T06:27:33.914Z,0
2018-12-01T06:28:34.065Z,0
2018-12-01T06:29:36.036Z,0
2018-12-01T06:30:36.453Z,0
2018-12-01T06:31:37.148Z,0
2018-12-01T06:32:38.566Z,0
2018-12-01T06:33:38.704Z,0
2018-12-01T06:34:39.398Z,0
2018-12-01T06:35:40.366Z,0
2018-12-01T06:36:41.064Z,0
2018-12-01T06:37:40.921Z,0
2018-12-01T06:38:42.056Z,0
2018-12-01T06:39:43.471Z,0
2018-12-01T06:40:43.608Z,0
2018-12-01T06:41:44.304Z,0
2018-12-01T06:42:45.000Z,0
2018-12-01T06:43:45.971Z,0
2018-12-01T06:44:47.219Z,5.63
2018-12-01T06:45:47.633Z,5.63
2018-12-01T06:46:48.048Z,5.63
2018-12-01T06:47:48.664Z,5.63
2018-12-01T06:48:49.912Z,5.63
2018-12-01T06:49:49.606Z,5.63
2018-12-01T06:50:50.579Z,5.63
2018-12-01T06:51:50.721Z,5.63
2018-12-01T06:52:52.415Z,5.63
2018-12-01T06:53:52.665Z,5.63
2018-12-01T06:54:53.359Z,5.63
2018-12-01T06:55:54.332Z,5.63
2018-12-01T06:56:55.034Z,5.63
2018-12-01T06:57:55.331Z,5.63
2018-12-01T06:58:56.751Z,5.63
2018-12-01T06:59:57.169Z,5.63
2018-12-01T07:00:58.868Z,5.63
2018-12-01T07:01:59.285Z,5.63
2018-12-01T07:02:59.977Z,5.63
2018-12-01T07:04:01.233Z,5.63
2018-12-01T07:05:01.204Z,11.25
2018-12-01T07:06:01.621Z,11.25
2018-12-01T07:07:02.039Z,11.25
2018-12-01T07:08:03.181Z,11.25
2018-12-01T07:09:03.606Z,11.25
2018-12-01T07:10:04.583Z,16.88
2018-12-01T07:11:05.282Z,16.88
2018-12-01T07:12:06.257Z,16.88
2018-12-01T07:13:06.397Z,22.5
2018-12-01T07:14:07.812Z,22.5
2018-12-01T07:15:08.237Z,22.5
2018-12-01T07:16:08.930Z,22.5
2018-12-01T07:17:09.349Z,22.5
2018-12-01T07:18:09.949Z,22.5
2018-12-01T07:19:10.646Z,22.5
2018-12-01T07:20:11.346Z,22.5
2018-12-01T07:21:11.761Z,28.13
2018-12-01T07:22:12.456Z,28.13
2018-12-01T07:23:12.909Z,28.13
2018-12-01T07:24:13.384Z,28.13
2018-12-01T07:25:13.524Z,28.13
2018-12-01T07:26:14.222Z,28.13
2018-12-01T07:27:15.194Z,28.13
2018-12-01T07:28:16.025Z,28.13
2018-12-01T07:29:16.169Z,28.13
2018-12-01T07:30:17.589Z,28.13
2018-12-01T07:31:18.282Z,28.13
2018-12-01T07:32:18.711Z,28.13
2018-12-01T07:33:19.681Z,22.5
2018-12-01T07:34:19.102Z,22.5
2018-12-01T07:35:20.521Z,22.5
2018-12-01T07:36:22.055Z,22.5
2018-12-01T07:37:22.198Z,28.13
2018-12-01T07:38:22.476Z,28.13
2018-12-01T07:39:23.900Z,28.13
2018-12-01T07:40:24.637Z,28.13
2018-12-01T07:41:25.887Z,28.13
2018-12-01T07:42:26.025Z,28.13
2018-12-01T07:43:27.446Z,28.13
2018-12-01T07:44:28.420Z,33.75
2018-12-01T07:45:28.558Z,33.75
2018-12-01T07:46:30.532Z,39.38
2018-12-01T07:47:31.245Z,39.38
2018-12-01T07:48:32.090Z,39.38
2018-12-01T07:49:33.233Z,45
2018-12-01T07:50:33.928Z,50.63
2018-12-01T07:51:35.351Z,56.25
2018-12-01T07:52:36.045Z,61.88
2018-12-01T07:53:36.736Z,61.88
2018-12-01T07:54:37.433Z,61.88
2018-12-01T07:55:37.857Z,61.88
2018-12-01T07:56:39.386Z,67.5
2018-12-01T07:57:39.090Z,73.13
2018-12-01T07:58:39.952Z,73.13
2018-12-01T07:59:40.692Z,73.13
2018-12-01T08:00:41.387Z,73.13
2018-12-01T08:01:42.372Z,67.5
2018-12-01T08:02:42.515Z,61.88
2018-12-01T08:03:43.658Z,61.88
2018-12-01T08:04:44.801Z,56.25
2018-12-01T08:05:46.217Z,56.25
2018-12-01T08:06:46.634Z,61.88
2018-12-01T08:07:46.816Z,61.88
2018-12-01T08:08:47.393Z,61.88
2018-12-01T08:09:49.364Z,61.88
2018-12-01T08:10:49.787Z,61.88
2018-12-01T08:11:50.205Z,67.5
2018-12-01T08:12:52.177Z,61.88
2018-12-01T08:13:53.429Z,61.88
2018-12-01T08:14:53.959Z,67.5
2018-12-01T08:15:54.655Z,67.5
2018-12-01T08:16:55.075Z,67.5
2018-12-01T08:17:55.502Z,73.13
2018-12-01T08:18:56.061Z,73.13
2018-12-01T08:19:56.478Z,78.75
2018-12-01T08:20:57.899Z,78.75
2018-12-01T08:21:58.632Z,84.38
2018-12-01T08:22:59.045Z,84.38
2018-12-01T08:24:00.196Z,84.38
2018-12-01T08:25:01.895Z,90
2018-12-01T08:26:02.593Z,90
2018-12-01T08:27:02.740Z,84.38
2018-12-01T08:28:03.878Z,84.38
2018-12-01T08:29:04.479Z,73.13
2018-12-01T08:30:05.900Z,84.38
2018-12-01T08:31:06.320Z,95.63
2018-12-01T08:32:08.026Z,106.88
2018-12-01T08:33:08.174Z,118.13
2018-12-01T08:34:10.150Z,129.38
2018-12-01T08:35:10.294Z,146.25
2018-12-01T08:36:11.993Z,163.13
2018-12-01T08:37:12.699Z,163.13
2018-12-01T08:38:13.115Z,118.13
2018-12-01T08:39:13.954Z,151.88
2018-12-01T08:40:14.655Z,174.38
2018-12-01T08:41:15.361Z,174.38
2018-12-01T08:42:16.060Z,174.38
2018-12-01T08:43:16.482Z,174.38
2018-12-01T08:44:16.911Z,180
2018-12-01T08:45:18.176Z,191.25
2018-12-01T08:46:18.610Z,196.88
2018-12-01T08:47:19.310Z,202.5
2018-12-01T08:48:19.456Z,208.13
2018-12-01T08:49:20.565Z,202.5
2018-12-01T08:50:22.653Z,208.13
2018-12-01T08:51:22.350Z,208.13
2018-12-01T08:52:22.492Z,219.38
2018-12-01T08:53:24.192Z,230.63
2018-12-01T08:54:24.344Z,253.13
2018-12-01T08:55:26.321Z,258.75
2018-12-01T08:56:27.032Z,270
2018-12-01T08:57:27.174Z,275.63
2018-12-01T08:58:28.596Z,275.63
2018-12-01T08:59:29.437Z,253.13
2018-12-01T09:00:31.132Z,236.25
2018-12-01T09:01:31.554Z,264.38
2018-12-01T09:02:32.254Z,264.38
2018-12-01T09:03:31.951Z,247.5
2018-12-01T09:04:33.208Z,219.38
2018-12-01T09:05:33.630Z,241.88
2018-12-01T09:06:34.328Z,247.5
2018-12-01T09:07:35.029Z,241.88
2018-12-01T09:08:35.724Z,236.25
2018-12-01T09:09:36.835Z,236.25
2018-12-01T09:10:36.533Z,236.25
2018-12-01T09:11:36.680Z,236.25
2018-12-01T09:12:38.099Z,230.63
2018-12-01T09:13:39.802Z,230.63
2018-12-01T09:14:40.228Z,230.63
2018-12-01T09:15:40.929Z,230.63
2018-12-01T09:16:41.903Z,225
2018-12-01T09:17:42.048Z,219.38
2018-12-01T09:18:42.802Z,219.38
2018-12-01T09:19:43.754Z,208.13
2018-12-01T09:20:44.178Z,208.13
2018-12-01T09:21:45.435Z,202.5
2018-12-01T09:22:45.866Z,208.13
2018-12-01T09:23:46.847Z,219.38
2018-12-01T09:24:47.830Z,247.5
2018-12-01T09:25:49.096Z,286.88
2018-12-01T09:26:48.518Z,315
2018-12-01T09:27:49.226Z,360
2018-12-01T09:28:49.367Z,399.38
2018-12-01T09:30:02.754Z,905.63
2018-12-01T09:31:03.593Z,511.88
2018-12-01T09:32:04.572Z,697.5
2018-12-01T09:33:06.106Z,455.63
2018-12-01T09:34:06.856Z,545.63
2018-12-01T09:35:07.001Z,613.13
2018-12-01T09:36:08.704Z,556.88
2018-12-01T09:37:08.851Z,753.75
2018-12-01T09:38:10.391Z,590.63
2018-12-01T09:39:10.921Z,585
2018-12-01T09:40:11.343Z,461.25
2018-12-01T09:41:12.465Z,821.25
2018-12-01T09:42:12.893Z,1395
2018-12-01T09:43:13.317Z,877.5
2018-12-01T09:44:13.741Z,596.25
2018-12-01T09:45:14.165Z,1141.88
2018-12-01T09:46:14.587Z,1293.75
2018-12-01T09:47:15.042Z,618.75
2018-12-01T09:48:15.191Z,601.88
2018-12-01T09:49:16.894Z,444.38
2018-12-01T09:50:17.879Z,466.88
2018-12-01T09:51:18.432Z,444.38
2018-12-01T09:52:19.689Z,376.88
2018-12-01T09:53:20.388Z,388.13
2018-12-01T09:54:20.535Z,405
2018-12-01T09:55:21.960Z,500.63
2018-12-01T09:56:22.670Z,1074.38
2018-12-01T09:57:23.648Z,1366.88
2018-12-01T09:58:24.354Z,2171.25
2018-12-01T09:59:25.081Z,2610
2018-12-01T10:00:26.345Z,2486.25
2018-12-01T10:01:27.028Z,2115
2018-12-01T10:02:27.459Z,2047.5
2018-12-01T10:03:28.166Z,1704.38
2018-12-01T10:04:28.329Z,1597.5
2018-12-01T10:05:30.355Z,1552.5
2018-12-01T10:06:30.798Z,1186.88
2018-12-01T10:07:31.245Z,1535.63
2018-12-01T10:08:32.235Z,1991.25
2018-12-01T10:09:32.941Z,2266.88
2018-12-01T10:10:33.652Z,2491.88
2018-12-01T10:11:34.498Z,2812.5
2018-12-01T10:12:35.205Z,2497.5
2018-12-01T10:13:36.913Z,1974.38
2018-12-01T10:14:37.341Z,1164.38
2018-12-01T10:15:38.357Z,1783.13
2018-12-01T10:16:38.531Z,1164.38
2018-12-01T10:17:39.961Z,1164.38
2018-12-01T10:18:40.390Z,1113.75
2018-12-01T10:19:40.543Z,1816.88
2018-12-01T10:20:41.252Z,2525.63
2018-12-01T10:21:42.380Z,2221.88
2018-12-01T10:22:42.815Z,2047.5
2018-12-01T10:23:43.571Z,2002.5
2018-12-01T10:24:43.719Z,2795.63
2018-12-01T10:25:44.871Z,3397.5
2018-12-01T10:26:45.860Z,3594.38
2018-12-01T10:27:46.290Z,3380.63
2018-12-01T10:28:46.996Z,3099.38
2018-12-01T10:29:47.156Z,2818.13
2018-12-01T10:30:47.865Z,2885.63
2018-12-01T10:31:48.194Z,894.38
2018-12-01T10:32:48.648Z,573.75
2018-12-01T10:33:51.294Z,562.5
2018-12-01T10:34:50.777Z,596.25
2018-12-01T10:35:52.221Z,607.5
2018-12-01T10:36:52.651Z,669.38
2018-12-01T10:37:53.920Z,759.38
2018-12-01T10:38:54.407Z,742.5
2018-12-01T10:39:55.398Z,866.25
2018-12-01T10:40:55.828Z,1035
2018-12-01T10:42:08.612Z,1738.13
2018-12-01T10:43:10.029Z,1344.38
2018-12-01T10:44:10.501Z,1012.5
2018-12-01T10:45:10.927Z,866.25
2018-12-01T10:46:12.190Z,781.88
2018-12-01T10:47:12.178Z,765
2018-12-01T10:48:12.608Z,787.5
2018-12-01T10:49:13.402Z,815.63
2018-12-01T10:50:14.109Z,826.88
2018-12-01T10:51:14.572Z,860.63
2018-12-01T10:52:16.488Z,990
2018-12-01T10:53:17.887Z,950.63
2018-12-01T10:54:17.362Z,967.5
2018-12-01T10:55:17.512Z,1012.5
2018-12-01T10:56:19.216Z,1029.38
2018-12-01T10:57:19.645Z,967.5
2018-12-01T10:58:21.185Z,871.88
2018-12-01T10:59:22.164Z,894.38
2018-12-01T11:00:22.593Z,933.75
2018-12-01T11:01:23.302Z,967.5
2018-12-01T11:02:24.007Z,1102.5
2018-12-01T11:03:24.803Z,1389.38
2018-12-01T11:04:25.237Z,1350
2018-12-01T11:05:26.235Z,1479.38
2018-12-01T11:06:26.949Z,1468.13
2018-12-01T11:07:27.098Z,2441.25
2018-12-01T11:08:28.250Z,1378.13
2018-12-01T11:09:29.678Z,1586.25
2018-12-01T11:10:30.386Z,1378.13
2018-12-01T11:11:30.817Z,1361.25
2018-12-01T11:12:31.246Z,1344.38
2018-12-01T11:13:31.941Z,1614.38
2018-12-01T11:14:33.380Z,2323.13
2018-12-01T11:15:33.808Z,2475
2018-12-01T11:16:34.839Z,2615.63
2018-12-01T11:17:34.831Z,2733.75
2018-12-01T11:18:36.372Z,1580.63
2018-12-01T11:19:36.356Z,1170
2018-12-01T11:20:36.785Z,1985.63
2018-12-01T11:21:37.495Z,2165.63
2018-12-01T11:22:38.200Z,1597.5
2018-12-01T11:23:39.330Z,838.13
2018-12-01T11:24:39.034Z,461.25
2018-12-01T11:25:40.463Z,455.63
2018-12-01T11:26:41.169Z,798.75
2018-12-01T11:27:42.156Z,1901.25
2018-12-01T11:28:43.417Z,1552.5
2018-12-01T11:29:44.402Z,725.63
2018-12-01T11:30:44.833Z,1023.75
2018-12-01T11:31:45.261Z,691.88
2018-12-01T11:32:45.700Z,579.38
2018-12-01T11:33:47.649Z,1423.13
2018-12-01T11:34:47.081Z,2368.13
2018-12-01T11:35:47.523Z,2401.88
2018-12-01T11:36:48.228Z,2036.25
2018-12-01T11:37:48.385Z,1878.75
2018-12-01T11:38:49.374Z,2238.75
2018-12-01T11:39:49.807Z,1608.75
2018-12-01T11:40:50.235Z,832.5
2018-12-01T11:41:50.393Z,708.75
2018-12-01T11:42:51.104Z,877.5
2018-12-01T11:43:52.247Z,2041.88
2018-12-01T11:44:58.284Z,2418.75
2018-12-01T11:45:05.045Z,2463.75
2018-12-01T11:46:06.225Z,2390.63
2018-12-01T11:47:07.013Z,2542.5
2018-12-01T11:48:08.277Z,2300.63
2018-12-01T11:49:07.989Z,1445.63
2018-12-01T11:50:08.708Z,1057.5
2018-12-01T11:51:08.694Z,1828.13
2018-12-01T11:52:09.404Z,2137.5
2018-12-01T11:53:10.116Z,1951.88
2018-12-01T11:54:10.266Z,2036.25
2018-12-01T11:55:11.972Z,1485
2018-12-01T11:56:12.258Z,933.75
2018-12-01T11:57:13.690Z,1569.38
2018-12-01T11:58:14.956Z,1158.75
2018-12-01T11:59:15.116Z,1113.75
2018-12-01T12:00:17.105Z,978.75
2018-12-01T12:01:17.257Z,759.38
2018-12-01T12:02:18.962Z,663.75
2018-12-01T12:03:19.391Z,658.13
2018-12-01T12:04:20.546Z,945
2018-12-01T12:05:21.813Z,1012.5
2018-12-01T12:06:21.953Z,928.13
2018-12-01T12:07:22.108Z,1125
2018-12-01T12:08:22.539Z,2441.25
2018-12-01T12:09:23.524Z,2458.13
2018-12-01T12:10:23.681Z,2750.63
2018-12-01T12:11:24.387Z,2559.38
2018-12-01T12:12:25.391Z,2199.38
2018-12-01T12:13:26.380Z,2199.38
2018-12-01T12:14:26.853Z,2463.75
2018-12-01T12:15:27.560Z,2283.75
2018-12-01T12:16:28.134Z,2047.5
2018-12-01T12:17:29.843Z,1603.13
2018-12-01T12:18:31.071Z,1575
2018-12-01T12:19:31.782Z,1760.63
2018-12-01T12:20:32.216Z,1805.63
2018-12-01T12:21:33.204Z,1833.75
2018-12-01T12:22:32.912Z,1473.75
2018-12-01T12:23:34.620Z,1732.5
2018-12-01T12:24:35.057Z,2041.88
2018-12-01T12:25:36.320Z,2188.13
2018-12-01T12:26:36.921Z,466.88
2018-12-01T12:27:38.184Z,438.75
2018-12-01T12:28:37.889Z,877.5
2018-12-01T12:29:38.874Z,472.5
2018-12-01T12:30:39.026Z,399.38
2018-12-01T12:31:40.452Z,360
2018-12-01T12:32:40.885Z,354.38
2018-12-01T12:33:41.594Z,416.25
2018-12-01T12:34:42.023Z,523.13
2018-12-01T12:35:42.456Z,253.13
2018-12-01T12:36:43.296Z,230.63
2018-12-01T12:37:43.725Z,208.13
2018-12-01T12:38:44.432Z,191.25
2018-12-01T12:39:44.863Z,180
2018-12-01T12:40:45.294Z,163.13
2018-12-01T12:41:46.000Z,146.25
2018-12-01T12:42:46.427Z,140.63
2018-12-01T12:43:47.166Z,135
2018-12-01T12:44:47.316Z,129.38
2018-12-01T12:45:48.021Z,129.38
2018-12-01T12:46:48.880Z,123.75
2018-12-01T12:47:49.307Z,112.5
2018-12-01T12:48:50.733Z,112.5
2018-12-01T12:49:50.884Z,112.5
2018-12-01T12:50:55.354Z,112.5
2018-12-01T12:51:55.821Z,118.13
2018-12-01T12:52:56.258Z,123.75
2018-12-01T12:53:56.695Z,129.38
2018-12-01T12:54:57.678Z,135
2018-12-01T12:55:58.216Z,135
2018-12-01T12:56:59.385Z,135
2018-12-01T12:58:00.088Z,129.38
2018-12-01T12:59:00.794Z,123.75
2018-12-01T13:00:02.082Z,118.13
2018-12-01T13:01:02.788Z,112.5
2018-12-01T13:02:03.489Z,118.13
2018-12-01T13:03:03.645Z,118.13
2018-12-01T13:04:05.345Z,112.5
2018-12-01T13:05:06.049Z,118.13
2018-12-01T13:06:06.758Z,106.88
2018-12-01T13:07:07.605Z,101.25
2018-12-01T13:08:09.142Z,95.63
2018-12-01T13:09:08.870Z,90
2018-12-01T13:10:09.291Z,84.38
2018-12-01T13:11:10.272Z,78.75
2018-12-01T13:12:10.422Z,78.75
2018-12-01T13:13:11.855Z,73.13
2018-12-01T13:14:12.276Z,67.5
2018-12-01T13:15:12.699Z,67.5
2018-12-01T13:16:13.400Z,73.13
2018-12-01T13:17:13.959Z,78.75
2018-12-01T13:18:15.393Z,84.38
2018-12-01T13:19:15.554Z,90
2018-12-01T13:20:16.977Z,90
2018-12-01T13:21:17.407Z,90
2018-12-01T13:22:18.107Z,84.38
2018-12-01T13:23:19.085Z,78.75
2018-12-01T13:24:20.343Z,73.13
2018-12-01T13:25:20.768Z,73.13
2018-12-01T13:26:22.194Z,73.13
2018-12-01T13:27:22.471Z,73.13
2018-12-01T13:28:23.175Z,78.75
2018-12-01T13:29:24.709Z,78.75
2018-12-01T13:30:25.414Z,78.75
2018-12-01T13:31:25.836Z,84.38
2018-12-01T13:32:25.984Z,84.38
2018-12-01T13:33:27.427Z,84.38
2018-12-01T13:34:28.129Z,84.38
2018-12-01T13:35:28.832Z,78.75
2018-12-01T13:36:29.535Z,78.75
2018-12-01T13:37:30.099Z,78.75
2018-12-01T13:38:30.522Z,78.75
2018-12-01T13:39:31.223Z,73.13
2018-12-01T13:40:31.928Z,78.75
2018-12-01T13:41:32.349Z,78.75
2018-12-01T13:42:33.053Z,78.75
2018-12-01T13:43:34.038Z,78.75
2018-12-01T13:44:34.185Z,78.75
2018-12-01T13:45:35.366Z,84.38
2018-12-01T13:46:36.077Z,90
2018-12-01T13:47:37.764Z,101.25